Darstellungsparameter: Aktuell verwendete Einstellungen:
Skalierung der Graphiken ... ?
xyx+y,   Skalierungsfaktor:      Skalierung: Modus: x, Faktor: 1
Darstellungszeitraum ... ?
Vom - - bis: - -   Zeitraum: 23.05.2005 - 29.05.2005
Min/Max/Avg-Anzeige ... ?
Zeige MMA aktuell
Zeige MMA Monat
Zeige MMA alles
Zeige --A aktuell
Zeige --A Monat
Zeige --A alles
Keine MMA-Anzeige
MMA:
Average (ber die Originaldaten)
MMA-Basis: 23.05.2005 - 29.05.2005
Quicknavigation für Darstellung... ?
Tage:      1T, 2T, 3T, 5T -1T -2T -3T -5T +1T +2T +3T +5T
Wochen: 1W, 2W, 3W -1W -2W -3W +1W +2W +3W
Monate: 1M, 3M, 6M -1M -3M -6M +1M +3M +6M
Jahre:    1J, 3J, 5J, 10J -1J -3J -5J -10J +1J +3J +5J +10J
Nutze für die Darstellung ... ?
Originaldaten oder Mittelwerte auf ...
Stundenbasis Tagesbasis Wochenbasis
Monatsbasis Jahresbasis      Datenbasis: Original-Daten
Darstellen als:
Statistik (Auto) Statistik J:M      Darstellung:
Zur Graphik,    zurück zur Übersicht aller Sensoren.
 
Tabellarische Datenbersicht: ?
 
Sensor: Nr:Datum:Temp:Abs-Feuchte:Windchill:Wind:
Aussen-T/F 1 23-05-2005 00:07:02 14.4 C 10.14 g/m*3 14.4 C 0 km/h
2 23-05-2005 00:19:02 14.2 C 10.26 g/m*3 14.2 C 0 km/h
3 23-05-2005 00:31:03 14 C 10.13 g/m*3 14 C 0 km/h
4 23-05-2005 00:43:03 14.1 C 10.32 g/m*3 14.1 C 0 km/h
5 23-05-2005 00:55:02 14 C 10.25 g/m*3 14 C 0 km/h
6 23-05-2005 01:07:03 13.8 C 10.25 g/m*3 13.8 C 0 km/h
7 23-05-2005 01:19:02 13.6 C 10.24 g/m*3 13.6 C 0 km/h
8 23-05-2005 01:31:02 13.3 C 9.94 g/m*3 13.3 C 0 km/h
9 23-05-2005 01:43:02 13.2 C 9.87 g/m*3 13.2 C 0 km/h
10 23-05-2005 01:55:02 13.1 C 9.7 g/m*3 13.1 C 0 km/h
11 23-05-2005 02:07:02 13 C 9.64 g/m*3 13 C 0 km/h
12 23-05-2005 02:19:02 12.9 C 9.69 g/m*3 12.9 C 0 km/h
13 23-05-2005 02:31:02 12.8 C 9.52 g/m*3 12.8 C 0 km/h
14 23-05-2005 02:43:02 12.7 C 9.46 g/m*3 12.7 C 0 km/h
15 23-05-2005 02:56:04 12.8 C 9.52 g/m*3 12.8 C 0 km/h
16 23-05-2005 03:08:05 12.7 C 9.35 g/m*3 12.7 C 0 km/h
17 23-05-2005 03:20:04 12.5 C 9.24 g/m*3 12.5 C 0 km/h
18 23-05-2005 03:32:03 12.3 C 9.12 g/m*3 12.3 C 0 km/h
19 23-05-2005 03:44:03 12.1 C 9.01 g/m*3 12.1 C 0 km/h
20 23-05-2005 03:56:03 11.9 C 9 g/m*3 11.9 C 0 km/h
21 23-05-2005 04:08:03 11.9 C 9 g/m*3 11.9 C 0 km/h
22 23-05-2005 04:20:02 11.8 C 9.05 g/m*3 11.8 C 0 km/h
23 23-05-2005 04:32:03 11.9 C 9.21 g/m*3 11.9 C 0 km/h
24 23-05-2005 04:44:03 12 C 9.17 g/m*3 12 C 0 km/h
25 23-05-2005 04:56:02 12 C 9.06 g/m*3 12 C 0 km/h
Sensor: Nr:Datum:Temp:Abs-Feuchte:Windchill:Wind:
Aussen-T/F 26 23-05-2005 05:08:02 12 C 9.06 g/m*3 12 C 0 km/h
27 23-05-2005 05:20:01 11.9 C 9.11 g/m*3 11.9 C 0 km/h
28 23-05-2005 05:32:02 11.8 C 9.05 g/m*3 11.8 C 0 km/h
29 23-05-2005 05:44:02 11.8 C 9.05 g/m*3 11.8 C 0 km/h
30 23-05-2005 05:56:01 11.8 C 9.05 g/m*3 11.8 C 0 km/h
31 23-05-2005 06:08:01 11.9 C 9.21 g/m*3 11.9 C 0 km/h
32 23-05-2005 06:20:02 12.1 C 9.12 g/m*3 12.1 C 0 km/h
33 23-05-2005 06:32:02 12.1 C 9.12 g/m*3 12.1 C 0 km/h
34 23-05-2005 06:44:03 12.1 C 9.01 g/m*3 12.1 C 0 km/h
35 23-05-2005 06:56:02 12.2 C 9.06 g/m*3 12.2 C 0 km/h
36 23-05-2005 07:08:02 12.3 C 9.12 g/m*3 12.3 C 0 km/h
37 23-05-2005 07:20:02 12.3 C 9.01 g/m*3 12.3 C 0 km/h
38 23-05-2005 07:32:01 12.5 C 9.13 g/m*3 12.5 C 0 km/h
39 23-05-2005 07:44:01 12.7 C 9.13 g/m*3 12.7 C 0 km/h
40 23-05-2005 07:56:02 12.9 C 9.13 g/m*3 12.9 C 0 km/h
41 23-05-2005 08:08:02 13.1 C 8.9 g/m*3 13.1 C 0 km/h
42 23-05-2005 08:20:02 13.2 C 8.84 g/m*3 13.2 C 0 km/h
43 23-05-2005 08:32:02 13.3 C 8.9 g/m*3 13.3 C 0 km/h
44 23-05-2005 08:44:02 13.4 C 8.83 g/m*3 13.4 C 0 km/h
45 23-05-2005 08:56:03 13.5 C 8.89 g/m*3 13.5 C 0 km/h
46 23-05-2005 09:08:02 13.8 C 8.82 g/m*3 13.8 C 0 km/h
47 23-05-2005 09:20:02 13.9 C 8.75 g/m*3 13.9 C 0 km/h
48 23-05-2005 09:32:02 14.3 C 8.72 g/m*3 14.3 C 0 km/h
49 23-05-2005 09:44:02 14.7 C 8.69 g/m*3 14.7 C 0 km/h
50 23-05-2005 09:56:01 14.9 C 8.67 g/m*3 14.9 C 0 km/h
Sensor: Nr:Datum:Temp:Abs-Feuchte:Windchill:Wind:
Aussen-T/F 51 23-05-2005 10:08:02 15.4 C 8.54 g/m*3 15.4 C 0 km/h
52 23-05-2005 10:20:02 16 C 8.45 g/m*3 16 C 0 km/h
53 23-05-2005 10:32:01 16.7 C 8.53 g/m*3 16.7 C 0 km/h
54 23-05-2005 10:44:01 16.4 C 8.37 g/m*3 16.4 C 0 km/h
55 23-05-2005 10:56:01 17.4 C 8.45 g/m*3 17.4 C 0 km/h
56 23-05-2005 11:08:01 17.5 C 8.35 g/m*3 17.5 C 0 km/h
57 23-05-2005 11:20:02 18.1 C 8.34 g/m*3 18.1 C 0 km/h
58 23-05-2005 11:32:02 17.9 C 8.09 g/m*3 17.9 C 0 km/h
59 23-05-2005 11:44:02 18.3 C 7.97 g/m*3 18.3 C 0 km/h
60 23-05-2005 11:56:02 18.4 C 7.71 g/m*3 18.4 C 0 km/h
61 23-05-2005 12:08:02 18.9 C 7.29 g/m*3 18.9 C 0 km/h
62 23-05-2005 12:20:02 19.9 C 7.73 g/m*3 19.9 C 0 km/h
63 23-05-2005 12:32:02 19 C 7.17 g/m*3 19 C 0 km/h
64 23-05-2005 12:44:02 18.7 C 7.52 g/m*3 18.7 C 0 km/h
65 23-05-2005 12:56:02 19.1 C 7.38 g/m*3 19.1 C 0 km/h
66 23-05-2005 13:08:02 18 C 7.22 g/m*3 18 C 0 km/h
67 23-05-2005 13:20:02 16 C 8.04 g/m*3 16 C 0 km/h
68 23-05-2005 13:32:02 14.2 C 8.91 g/m*3 14.2 C 0 km/h
69 23-05-2005 13:44:02 13.9 C 8.87 g/m*3 13.9 C 0 km/h
70 23-05-2005 13:56:02 14.2 C 9.16 g/m*3 14.2 C 0 km/h
71 23-05-2005 14:08:02 15.8 C 9.02 g/m*3 15.8 C 0 km/h
72 23-05-2005 14:20:03 17.2 C 8.2 g/m*3 17.2 C 0 km/h
73 23-05-2005 14:32:02 19.2 C 8.9 g/m*3 19.2 C 0 km/h
74 23-05-2005 14:44:02 19.2 C 8.08 g/m*3 19.2 C 0 km/h
75 23-05-2005 14:56:02 18.1 C 8.19 g/m*3 18.1 C 0 km/h
Sensor: Nr:Datum:Temp:Abs-Feuchte:Windchill:Wind:
Aussen-T/F 76 23-05-2005 15:08:02 17.6 C 8.25 g/m*3 17.6 C 0 km/h
77 23-05-2005 15:20:02 17.1 C 8.44 g/m*3 17.1 C 0 km/h
78 23-05-2005 15:32:02 15.9 C 9.34 g/m*3 15.9 C 0 km/h
79 23-05-2005 15:44:02 16 C 9.54 g/m*3 16 C 0 km/h
80 23-05-2005 15:56:02 16.4 C 8.93 g/m*3 16.4 C 0 km/h
81 23-05-2005 16:08:02 16.7 C 8.67 g/m*3 16.7 C 0 km/h
82 23-05-2005 16:20:02 17.3 C 8.4 g/m*3 17.3 C 0 km/h
83 23-05-2005 16:32:02 17.9 C 8.24 g/m*3 17.9 C 0 km/h
84 23-05-2005 16:44:02 19 C 7.99 g/m*3 19 C 0 km/h
85 23-05-2005 16:56:02 20.6 C 7.87 g/m*3 20.6 C 0 km/h
86 23-05-2005 17:08:02 21.4 C 7.69 g/m*3 21.4 C 0 km/h
87 23-05-2005 17:20:01 21.6 C 7.4 g/m*3 21.6 C 0 km/h
88 23-05-2005 17:32:02 20.7 C 8.1 g/m*3 20.7 C 0 km/h
89 23-05-2005 17:44:02 20.4 C 7.96 g/m*3 20.4 C 0 km/h
90 23-05-2005 17:56:01 19.2 C 7.42 g/m*3 19.2 C 0 km/h
91 23-05-2005 18:08:01 20.5 C 7.65 g/m*3 20.5 C 0 km/h
92 23-05-2005 18:20:01 20.6 C 7.52 g/m*3 20.6 C 0 km/h
93 23-05-2005 18:32:02 19.4 C 7.51 g/m*3 19.4 C 0 km/h
94 23-05-2005 18:44:02 19.4 C 7.51 g/m*3 19.4 C 0 km/h
95 23-05-2005 18:56:01 19.7 C 7.81 g/m*3 19.7 C 0 km/h
96 23-05-2005 19:08:01 21 C 7.14 g/m*3 21 C 0 km/h
97 23-05-2005 19:20:02 19.8 C 8.03 g/m*3 19.8 C 0 km/h
98 23-05-2005 19:32:02 19.2 C 8.08 g/m*3 19.2 C 0 km/h
99 23-05-2005 19:44:02 20.4 C 7.78 g/m*3 20.4 C 0 km/h
100 23-05-2005 19:56:02 21.1 C 7 g/m*3 21.1 C 0 km/h
Sensor: Nr:Datum:Temp:Abs-Feuchte:Windchill:Wind:
Aussen-T/F 101 23-05-2005 20:08:02 20.9 C 7.1 g/m*3 20.9 C 0 km/h
102 23-05-2005 20:20:02 21 C 8.06 g/m*3 21 C 0 km/h
103 23-05-2005 20:32:02 20 C 7.95 g/m*3 20 C 0 km/h
104 23-05-2005 20:44:02 19 C 7.33 g/m*3 19 C 0 km/h
105 23-05-2005 20:56:02 17.7 C 7.85 g/m*3 17.7 C 0 km/h
106 23-05-2005 21:08:05 16.7 C 7.96 g/m*3 16.7 C 0 km/h
107 23-05-2005 21:20:02 15.5 C 7.8 g/m*3 15.5 C 0 km/h
108 23-05-2005 21:32:04 15 C 7.82 g/m*3 15 C 0 km/h
109 23-05-2005 21:44:04 14.4 C 7.54 g/m*3 14.4 C 0 km/h
110 23-05-2005 21:56:03 14 C 7.96 g/m*3 14 C 0 km/h
111 23-05-2005 22:08:06 13.8 C 7.98 g/m*3 13.8 C 0 km/h
112 23-05-2005 22:20:02 13.5 C 8.07 g/m*3 13.5 C 0 km/h
113 23-05-2005 22:32:02 13.2 C 8.15 g/m*3 13.2 C 0 km/h
114 23-05-2005 22:44:02 13 C 8.28 g/m*3 13 C 0 km/h
115 23-05-2005 22:56:02 12.7 C 8.24 g/m*3 12.7 C 0 km/h
116 23-05-2005 23:08:01 12.6 C 8.08 g/m*3 12.6 C 0 km/h
117 23-05-2005 23:20:01 12.4 C 7.87 g/m*3 12.4 C 0 km/h
118 23-05-2005 23:32:01 12 C 7.57 g/m*3 12 C 0 km/h
119 23-05-2005 23:44:02 11.7 C 7.74 g/m*3 11.7 C 0 km/h
120 23-05-2005 23:56:02 11.4 C 7.6 g/m*3 11.4 C 0 km/h
121 24-05-2005 00:08:02 11.1 C 7.45 g/m*3 11.1 C 0 km/h
122 24-05-2005 00:20:03 10.9 C 7.56 g/m*3 10.9 C 0 km/h
123 24-05-2005 00:32:02 10.8 C 7.61 g/m*3 10.8 C 0 km/h
124 24-05-2005 00:44:02 10.6 C 7.52 g/m*3 10.6 C 0 km/h
125 24-05-2005 00:56:03 10.4 C 7.61 g/m*3 10.4 C 0 km/h
Sensor: Nr:Datum:Temp:Abs-Feuchte:Windchill:Wind:
Aussen-T/F 126 24-05-2005 01:08:02 10.3 C 7.66 g/m*3 10.3 C 0 km/h
127 24-05-2005 01:20:02 10.2 C 7.52 g/m*3 10.2 C 0 km/h
128 24-05-2005 01:32:02 10 C 7.24 g/m*3 10 C 0 km/h
129 24-05-2005 01:44:02 10.3 C 7.37 g/m*3 10.3 C 0 km/h
130 24-05-2005 01:56:02 9.6 C 7.15 g/m*3 9.6 C 0 km/h
131 24-05-2005 02:08:02 9.5 C 7.19 g/m*3 9.5 C 0 km/h
132 24-05-2005 02:20:02 9.3 C 7.1 g/m*3 9.3 C 0 km/h
133 24-05-2005 02:32:02 9.1 C 7.01 g/m*3 9.1 C 0 km/h
134 24-05-2005 02:44:02 9 C 7.05 g/m*3 9 C 0 km/h
135 24-05-2005 02:57:03 8.9 C 7.18 g/m*3 8.9 C 0 km/h
136 24-05-2005 03:09:03 8.7 C 7.09 g/m*3 8.7 C 0 km/h
137 24-05-2005 03:21:04 8.7 C 7.18 g/m*3 8.7 C 0 km/h
138 24-05-2005 03:33:02 8.6 C 7.13 g/m*3 8.6 C 0 km/h
139 24-05-2005 03:45:02 8.5 C 7.09 g/m*3 8.5 C 0 km/h
140 24-05-2005 03:57:02 8.4 C 7.04 g/m*3 8.4 C 0 km/h
141 24-05-2005 04:09:03 8.3 C 7.08 g/m*3 8.3 C 0 km/h
142 24-05-2005 04:21:02 8.1 C 6.99 g/m*3 8.1 C 0 km/h
143 24-05-2005 04:33:02 8 C 6.94 g/m*3 8 C 0 km/h
144 24-05-2005 04:45:03 7.8 C 7.02 g/m*3 7.8 C 0 km/h
145 24-05-2005 04:57:03 7.6 C 6.93 g/m*3 7.6 C 0 km/h
146 24-05-2005 05:09:02 7.6 C 7.01 g/m*3 7.6 C 0 km/h
147 24-05-2005 05:21:02 7.5 C 6.96 g/m*3 7.5 C 0 km/h
148 24-05-2005 05:33:02 7.3 C 6.87 g/m*3 7.3 C 0 km/h
149 24-05-2005 05:45:02 7.3 C 6.87 g/m*3 7.3 C 0 km/h
150 24-05-2005 05:57:02 7.3 C 6.87 g/m*3 7.3 C 0 km/h
Sensor: Nr:Datum:Temp:Abs-Feuchte:Windchill:Wind:
Aussen-T/F 151 24-05-2005 06:09:02 7.3 C 6.87 g/m*3 7.3 C 0 km/h
152 24-05-2005 06:21:02 7.4 C 7 g/m*3 7.4 C 0 km/h
153 24-05-2005 06:33:02 7.5 C 7.04 g/m*3 7.5 C 0 km/h
154 24-05-2005 06:45:02 7.9 C 7.23 g/m*3 7.9 C 0 km/h
155 24-05-2005 06:57:02 8.3 C 7.33 g/m*3 8.3 C 0 km/h
156 24-05-2005 07:09:02 8.5 C 7.17 g/m*3 8.5 C 0 km/h
157 24-05-2005 07:21:02 9 C 7.23 g/m*3 9 C 0 km/h
158 24-05-2005 07:33:02 9.5 C 7.37 g/m*3 9.5 C 0 km/h
159 24-05-2005 07:45:02 9.9 C 7.28 g/m*3 9.9 C 0 km/h
160 24-05-2005 07:57:02 10 C 6.86 g/m*3 10 C 0 km/h
161 24-05-2005 08:09:03 10.2 C 6.85 g/m*3 10.2 C 0 km/h
162 24-05-2005 08:21:03 10.6 C 6.93 g/m*3 10.6 C 0 km/h
163 24-05-2005 08:33:02 11.2 C 6.99 g/m*3 11.2 C 0 km/h
164 24-05-2005 08:45:01 11.5 C 7.02 g/m*3 11.5 C 0 km/h
165 24-05-2005 08:57:01 11.9 C 7.1 g/m*3 11.9 C 0 km/h
166 24-05-2005 09:09:02 12.4 C 7.1 g/m*3 12.4 C 0 km/h
167 24-05-2005 09:21:02 13.1 C 7.19 g/m*3 13.1 C 0 km/h
168 24-05-2005 09:33:02 13.5 C 7.25 g/m*3 13.5 C 0 km/h
169 24-05-2005 09:45:02 14.1 C 7.16 g/m*3 14.1 C 0 km/h
170 24-05-2005 09:57:02 14.4 C 7.05 g/m*3 14.4 C 0 km/h
171 24-05-2005 10:09:02 15 C 7.05 g/m*3 15 C 0 km/h
172 24-05-2005 10:21:02 14.9 C 7.39 g/m*3 14.9 C 0 km/h
173 24-05-2005 10:33:02 15.9 C 7.58 g/m*3 15.9 C 0 km/h
174 24-05-2005 10:45:02 16.2 C 7.58 g/m*3 16.2 C 0 km/h
175 24-05-2005 10:57:02 16.6 C 7.2 g/m*3 16.6 C 0 km/h
Sensor: Nr:Datum:Temp:Abs-Feuchte:Windchill:Wind:
Aussen-T/F 176 24-05-2005 11:09:01 17.2 C 6.74 g/m*3 17.2 C 0 km/h
177 24-05-2005 11:21:03 17.6 C 6.45 g/m*3 17.6 C 0 km/h
178 24-05-2005 11:33:02 17.9 C 6.41 g/m*3 17.9 C 0 km/h
179 24-05-2005 11:45:02 18.2 C 6.37 g/m*3 18.2 C 0 km/h
180 24-05-2005 11:57:02 18.9 C 6.64 g/m*3 18.9 C 0 km/h
181 24-05-2005 12:09:01 19.4 C 6.34 g/m*3 19.4 C 0 km/h
182 24-05-2005 12:21:02 19.3 C 6.14 g/m*3 19.3 C 0 km/h
183 24-05-2005 12:33:02 19.6 C 6.08 g/m*3 19.6 C 0 km/h
184 24-05-2005 12:45:02 20 C 6.22 g/m*3 20 C 0 km/h
185 24-05-2005 12:57:02 20 C 6.39 g/m*3 20 C 0 km/h
186 24-05-2005 13:09:02 19.9 C 6.19 g/m*3 19.9 C 0 km/h
187 24-05-2005 13:21:02 19.7 C 6.11 g/m*3 19.7 C 0 km/h
188 24-05-2005 13:33:02 20.1 C 6.26 g/m*3 20.1 C 0 km/h
189 24-05-2005 13:45:02 20.2 C 6.12 g/m*3 20.2 C 0 km/h
190 24-05-2005 13:57:03 20.9 C 6.19 g/m*3 20.9 C 0 km/h
191 24-05-2005 14:09:03 21.4 C 6 g/m*3 21.4 C 0 km/h
192 24-05-2005 14:21:02 21.9 C 6.18 g/m*3 21.9 C 0 km/h
193 24-05-2005 14:33:02 21.7 C 6.1 g/m*3 21.7 C 0 km/h
194 24-05-2005 14:45:02 21.5 C 6.03 g/m*3 21.5 C 0 km/h
195 24-05-2005 14:57:02 21.5 C 5.85 g/m*3 21.5 C 0 km/h
196 24-05-2005 15:09:02 21.3 C 5.78 g/m*3 21.3 C 0 km/h
197 24-05-2005 15:21:01 21.9 C 5.98 g/m*3 21.9 C 0 km/h
198 24-05-2005 15:33:01 21.2 C 5.74 g/m*3 21.2 C 0 km/h
199 24-05-2005 15:45:02 20.9 C 5.83 g/m*3 20.9 C 0 km/h
200 24-05-2005 15:57:02 20.7 C 6.3 g/m*3 20.7 C 0 km/h
Sensor: Nr:Datum:Temp:Abs-Feuchte:Windchill:Wind:
Aussen-T/F 201 24-05-2005 16:09:02 20.6 C 6.44 g/m*3 20.6 C 0 km/h
202 24-05-2005 16:21:02 20.7 C 6.66 g/m*3 20.7 C 0 km/h
203 24-05-2005 16:33:02 20.6 C 6.8 g/m*3 20.6 C 0 km/h
204 24-05-2005 16:45:02 21.3 C 6.71 g/m*3 21.3 C 0 km/h
205 24-05-2005 16:57:02 21.4 C 6.56 g/m*3 21.4 C 0 km/h
206 24-05-2005 17:09:02 21.4 C 6.56 g/m*3 21.4 C 0 km/h
207 24-05-2005 17:21:02 21.6 C 6.64 g/m*3 21.6 C 0 km/h
208 24-05-2005 17:33:02 21.4 C 6.19 g/m*3 21.4 C 0 km/h
209 24-05-2005 17:45:02 21.9 C 6.56 g/m*3 21.9 C 0 km/h
210 24-05-2005 17:57:02 21.7 C 6.68 g/m*3 21.7 C 0 km/h
211 24-05-2005 18:09:02 21.4 C 6.19 g/m*3 21.4 C 0 km/h
212 24-05-2005 18:21:02 21.4 C 6.19 g/m*3 21.4 C 0 km/h
213 24-05-2005 18:33:02 21.2 C 6.3 g/m*3 21.2 C 0 km/h
214 24-05-2005 18:45:01 20.8 C 6.52 g/m*3 20.8 C 0 km/h
215 24-05-2005 18:57:01 20.5 C 6.41 g/m*3 20.5 C 0 km/h
216 24-05-2005 19:09:01 20.4 C 6.72 g/m*3 20.4 C 0 km/h
217 24-05-2005 19:21:01 20 C 7.26 g/m*3 20 C 0 km/h
218 24-05-2005 19:33:02 19.8 C 7.17 g/m*3 19.8 C 0 km/h
219 24-05-2005 19:45:01 19.5 C 7.55 g/m*3 19.5 C 0 km/h
220 24-05-2005 19:57:01 19.2 C 7.59 g/m*3 19.2 C 0 km/h
221 24-05-2005 20:09:01 19.3 C 7.46 g/m*3 19.3 C 0 km/h
222 24-05-2005 20:21:02 19.3 C 7.46 g/m*3 19.3 C 0 km/h
223 24-05-2005 20:33:02 19.2 C 7.75 g/m*3 19.2 C 0 km/h
224 24-05-2005 20:45:01 18.6 C 7.48 g/m*3 18.6 C 0 km/h
225 24-05-2005 20:57:01 18 C 6.91 g/m*3 18 C 0 km/h
Sensor: Nr:Datum:Temp:Abs-Feuchte:Windchill:Wind:
Aussen-T/F 226 24-05-2005 21:09:02 17.6 C 7.2 g/m*3 17.6 C 0 km/h
227 24-05-2005 21:21:01 17.8 C 7.44 g/m*3 17.8 C 0 km/h
228 24-05-2005 21:33:02 17.4 C 7.71 g/m*3 17.4 C 0 km/h
229 24-05-2005 21:45:02 17.3 C 7.81 g/m*3 17.3 C 0 km/h
230 24-05-2005 21:57:02 17.2 C 7.91 g/m*3 17.2 C 0 km/h
231 24-05-2005 22:09:02 17.1 C 7.86 g/m*3 17.1 C 0 km/h
232 24-05-2005 22:21:02 17.2 C 7.61 g/m*3 17.2 C 0 km/h
233 24-05-2005 22:33:02 17.2 C 8.05 g/m*3 17.2 C 0 km/h
234 24-05-2005 22:45:01 17.1 C 8.01 g/m*3 17.1 C 0 km/h
235 24-05-2005 22:57:01 16.8 C 8.15 g/m*3 16.8 C 0 km/h
236 24-05-2005 23:09:01 16.7 C 8.38 g/m*3 16.7 C 0 km/h
237 24-05-2005 23:21:02 16.6 C 8.33 g/m*3 16.6 C 0 km/h
238 24-05-2005 23:33:02 16.5 C 8.28 g/m*3 16.5 C 0 km/h
239 24-05-2005 23:45:02 16.3 C 8.32 g/m*3 16.3 C 0 km/h
240 24-05-2005 23:57:02 16.1 C 8.22 g/m*3 16.1 C 0 km/h
241 25-05-2005 00:09:02 15.7 C 8.16 g/m*3 15.7 C 0 km/h
242 25-05-2005 00:21:03 15.4 C 8.01 g/m*3 15.4 C 0 km/h
243 25-05-2005 00:33:02 15.5 C 8.06 g/m*3 15.5 C 0 km/h
244 25-05-2005 00:45:02 15.5 C 8.06 g/m*3 15.5 C 0 km/h
245 25-05-2005 00:57:02 15.5 C 8.2 g/m*3 15.5 C 0 km/h
246 25-05-2005 01:09:02 15.3 C 7.97 g/m*3 15.3 C 0 km/h
247 25-05-2005 01:21:02 15.2 C 8.05 g/m*3 15.2 C 0 km/h
248 25-05-2005 01:33:02 15.2 C 8.18 g/m*3 15.2 C 0 km/h
249 25-05-2005 01:45:02 15 C 8.08 g/m*3 15 C 0 km/h
250 25-05-2005 01:57:02 14.9 C 8.28 g/m*3 14.9 C 0 km/h
Sensor: Nr:Datum:Temp:Abs-Feuchte:Windchill:Wind:
Aussen-T/F 251 25-05-2005 02:09:02 14.5 C 8.21 g/m*3 14.5 C 0 km/h
252 25-05-2005 02:21:03 14.6 C 8.38 g/m*3 14.6 C 0 km/h
253 25-05-2005 02:33:02 14.3 C 8.35 g/m*3 14.3 C 0 km/h
254 25-05-2005 02:46:03 14.2 C 8.43 g/m*3 14.2 C 0 km/h
255 25-05-2005 02:58:03 14.1 C 8.37 g/m*3 14.1 C 0 km/h
256 25-05-2005 03:10:03 13.8 C 8.34 g/m*3 13.8 C 0 km/h
257 25-05-2005 03:22:03 13.8 C 8.46 g/m*3 13.8 C 0 km/h
258 25-05-2005 03:34:03 13.7 C 8.41 g/m*3 13.7 C 0 km/h
259 25-05-2005 03:46:03 13.7 C 8.53 g/m*3 13.7 C 0 km/h
260 25-05-2005 03:58:03 13.6 C 8.47 g/m*3 13.6 C 0 km/h
261 25-05-2005 04:10:03 13.5 C 8.54 g/m*3 13.5 C 0 km/h
262 25-05-2005 04:22:02 13.5 C 8.54 g/m*3 13.5 C 0 km/h
263 25-05-2005 04:34:02 13.3 C 8.55 g/m*3 13.3 C 0 km/h
264 25-05-2005 04:46:02 13.3 C 8.55 g/m*3 13.3 C 0 km/h
265 25-05-2005 04:58:02 13.2 C 8.61 g/m*3 13.2 C 0 km/h
266 25-05-2005 05:10:02 13.2 C 8.61 g/m*3 13.2 C 0 km/h
267 25-05-2005 05:22:03 13.1 C 8.67 g/m*3 13.1 C 0 km/h
268 25-05-2005 05:34:03 12.9 C 8.68 g/m*3 12.9 C 0 km/h
269 25-05-2005 05:46:02 12.9 C 8.68 g/m*3 12.9 C 0 km/h
270 25-05-2005 05:58:02 13.1 C 8.56 g/m*3 13.1 C 0 km/h
271 25-05-2005 06:10:02 13.4 C 8.72 g/m*3 13.4 C 0 km/h
272 25-05-2005 06:22:02 13.5 C 8.66 g/m*3 13.5 C 0 km/h
273 25-05-2005 06:34:02 13.7 C 8.88 g/m*3 13.7 C 0 km/h
274 25-05-2005 06:46:02 13.8 C 8.94 g/m*3 13.8 C 0 km/h
275 25-05-2005 06:58:02 13.8 C 8.82 g/m*3 13.8 C 0 km/h
Sensor: Nr:Datum:Temp:Abs-Feuchte:Windchill:Wind:
Aussen-T/F 276 25-05-2005 07:10:02 14.1 C 8.86 g/m*3 14.1 C 0 km/h
277 25-05-2005 07:22:02 14.2 C 8.79 g/m*3 14.2 C 0 km/h
278 25-05-2005 07:34:02 14.1 C 8.74 g/m*3 14.1 C 0 km/h
279 25-05-2005 07:46:02 14.2 C 8.67 g/m*3 14.2 C 0 km/h
280 25-05-2005 07:58:02 14.7 C 8.81 g/m*3 14.7 C 0 km/h
281 25-05-2005 08:10:02 15 C 8.59 g/m*3 15 C 0 km/h
282 25-05-2005 08:22:02 14.9 C 8.54 g/m*3 14.9 C 0 km/h
283 25-05-2005 08:34:02 14.8 C 8.74 g/m*3 14.8 C 0 km/h
284 25-05-2005 08:46:02 15 C 8.59 g/m*3 15 C 0 km/h
285 25-05-2005 08:58:02 15.5 C 8.59 g/m*3 15.5 C 0 km/h
286 25-05-2005 09:10:03 16.7 C 8.67 g/m*3 16.7 C 0 km/h
287 25-05-2005 09:22:03 17.8 C 8.8 g/m*3 17.8 C 0 km/h
288 25-05-2005 09:34:02 18.6 C 8.91 g/m*3 18.6 C 0 km/h
289 25-05-2005 09:46:02 19 C 8.64 g/m*3 19 C 0 km/h
290 25-05-2005 09:58:02 19.6 C 8.78 g/m*3 19.6 C 0 km/h
291 25-05-2005 10:10:02 20.7 C 8.82 g/m*3 20.7 C 0 km/h
292 25-05-2005 10:22:02 21.1 C 8.48 g/m*3 21.1 C 0 km/h
293 25-05-2005 10:34:02 20.9 C 8.38 g/m*3 20.9 C 0 km/h
294 25-05-2005 10:46:01 21 C 8.06 g/m*3 21 C 0 km/h
295 25-05-2005 10:58:01 21.3 C 8.39 g/m*3 21.3 C 0 km/h
296 25-05-2005 11:10:02 21.8 C 8.63 g/m*3 21.8 C 0 km/h
297 25-05-2005 11:22:01 22.2 C 7.85 g/m*3 22.2 C 0 km/h
298 25-05-2005 11:34:02 22.1 C 8 g/m*3 22.1 C 0 km/h
299 25-05-2005 11:46:02 22 C 7.76 g/m*3 22 C 0 km/h
300 25-05-2005 11:58:02 22.8 C 7.52 g/m*3 22.8 C 0 km/h
Sensor: Nr:Datum:Temp:Abs-Feuchte:Windchill:Wind:
Aussen-T/F 301 25-05-2005 12:10:03 23.7 C 7.7 g/m*3 23.7 C 0 km/h
302 25-05-2005 12:22:02 23.9 C 7.36 g/m*3 23.9 C 0 km/h
303 25-05-2005 12:34:02 24.3 C 7.75 g/m*3 24.3 C 0 km/h
304 25-05-2005 12:46:02 24.7 C 7.47 g/m*3 24.7 C 0 km/h
305 25-05-2005 12:58:02 25.1 C 7.41 g/m*3 25.1 C 0 km/h
306 25-05-2005 13:10:02 25.7 C 7.42 g/m*3 25.7 C 0 km/h
307 25-05-2005 13:22:01 24.1 C 7.88 g/m*3 24.1 C 0 km/h
308 25-05-2005 13:34:02 23.8 C 7.96 g/m*3 23.8 C 0 km/h
309 25-05-2005 13:46:02 24.2 C 7.92 g/m*3 24.2 C 0 km/h
310 25-05-2005 13:58:02 25.8 C 7.7 g/m*3 25.8 C 0 km/h
311 25-05-2005 14:10:02 26 C 7.55 g/m*3 26 C 0 km/h
312 25-05-2005 14:22:02 25.8 C 8.19 g/m*3 25.8 C 0 km/h
313 25-05-2005 14:34:02 26.1 C 8.08 g/m*3 26.1 C 0 km/h
314 25-05-2005 14:46:01 26.2 C 7.63 g/m*3 26.2 C 0 km/h
315 25-05-2005 14:58:01 26.2 C 7.88 g/m*3 26.2 C 0 km/h
316 25-05-2005 15:10:02 26.9 C 8.45 g/m*3 26.9 C 0 km/h
317 25-05-2005 15:22:01 27 C 7.72 g/m*3 27 C 0 km/h
318 25-05-2005 15:34:01 27 C 7.46 g/m*3 27 C 0 km/h
319 25-05-2005 15:46:02 27.8 C 7.8 g/m*3 27.8 C 0 km/h
320 25-05-2005 15:58:02 28.4 C 7.78 g/m*3 28.4 C 0 km/h
321 25-05-2005 16:10:02 28.5 C 7.55 g/m*3 28.5 C 0 km/h
322 25-05-2005 16:22:02 28.8 C 8.24 g/m*3 28.8 C 0 km/h
323 25-05-2005 16:34:02 28.1 C 7.66 g/m*3 28.1 C 0 km/h
324 25-05-2005 16:46:02 29 C 7.76 g/m*3 29 C 0 km/h
325 25-05-2005 16:58:02 29.6 C 7.42 g/m*3 29.6 C 0 km/h
Sensor: Nr:Datum:Temp:Abs-Feuchte:Windchill:Wind:
Aussen-T/F 326 25-05-2005 17:10:03 29.2 C 7.55 g/m*3 29.2 C 0 km/h
327 25-05-2005 17:22:02 30.1 C 7.62 g/m*3 30.1 C 0 km/h
328 25-05-2005 17:34:02 28.4 C 7.23 g/m*3 28.4 C 0 km/h
329 25-05-2005 17:46:02 28.1 C 8.2 g/m*3 28.1 C 0 km/h
330 25-05-2005 17:58:02 28.4 C 7.51 g/m*3 28.4 C 0 km/h
331 25-05-2005 18:10:02 28.8 C 7.67 g/m*3 28.8 C 0 km/h
332 25-05-2005 18:22:02 28.3 C 8.29 g/m*3 28.3 C 0 km/h
333 25-05-2005 18:34:02 27.9 C 9.74 g/m*3 27.9 C 0 km/h
334 25-05-2005 18:46:01 27.7 C 9.63 g/m*3 27.7 C 0 km/h
335 25-05-2005 18:58:01 28.4 C 9.73 g/m*3 28.4 C 0 km/h
336 25-05-2005 19:10:02 30.1 C 8.23 g/m*3 30.1 C 0 km/h
337 25-05-2005 19:22:02 30.4 C 7.75 g/m*3 30.4 C 0 km/h
338 25-05-2005 19:34:02 29.8 C 9 g/m*3 29.8 C 0 km/h
339 25-05-2005 19:46:02 28.4 C 9.45 g/m*3 28.4 C 0 km/h
340 25-05-2005 19:58:02 27.7 C 9.36 g/m*3 27.7 C 0 km/h
341 25-05-2005 20:10:03 27.2 C 9.37 g/m*3 27.2 C 0 km/h
342 25-05-2005 20:22:03 26.5 C 9.51 g/m*3 26.5 C 0 km/h
343 25-05-2005 20:34:02 25.4 C 9.42 g/m*3 25.4 C 0 km/h
344 25-05-2005 20:46:02 24.4 C 9.35 g/m*3 24.4 C 0 km/h
345 25-05-2005 20:58:02 23.4 C 9.25 g/m*3 23.4 C 0 km/h
346 25-05-2005 21:10:03 22.8 C 9.35 g/m*3 22.8 C 0 km/h
347 25-05-2005 21:22:02 22.3 C 9.08 g/m*3 22.3 C 0 km/h
348 25-05-2005 21:34:02 21.7 C 9.35 g/m*3 21.7 C 0 km/h
349 25-05-2005 21:46:01 21.3 C 9.13 g/m*3 21.3 C 0 km/h
350 25-05-2005 21:58:01 21 C 9.34 g/m*3 21 C 0 km/h
Sensor: Nr:Datum:Temp:Abs-Feuchte:Windchill:Wind:
Aussen-T/F 351 25-05-2005 22:10:01 20.4 C 9.55 g/m*3 20.4 C 0 km/h
352 25-05-2005 22:22:02 20.2 C 9.44 g/m*3 20.2 C 0 km/h
353 25-05-2005 22:34:02 19.9 C 9.45 g/m*3 19.9 C 0 km/h
354 25-05-2005 22:46:02 19.6 C 9.45 g/m*3 19.6 C 0 km/h
355 25-05-2005 22:58:02 19.5 C 9.57 g/m*3 19.5 C 0 km/h
356 25-05-2005 23:10:02 19.3 C 9.62 g/m*3 19.3 C 0 km/h
357 25-05-2005 23:22:02 19.1 C 9.67 g/m*3 19.1 C 0 km/h
358 25-05-2005 23:34:02 19 C 9.61 g/m*3 19 C 0 km/h
359 25-05-2005 23:46:02 18.5 C 9.81 g/m*3 18.5 C 0 km/h
360 25-05-2005 23:58:02 18.4 C 9.91 g/m*3 18.4 C 0 km/h
361 26-05-2005 00:10:02 18.1 C 9.89 g/m*3 18.1 C 0 km/h
362 26-05-2005 00:22:03 17.8 C 10.17 g/m*3 17.8 C 0 km/h
363 26-05-2005 00:34:02 17.6 C 10.05 g/m*3 17.6 C 0 km/h
364 26-05-2005 00:46:02 17.2 C 9.96 g/m*3 17.2 C 0 km/h
365 26-05-2005 00:58:02 17 C 10.13 g/m*3 17 C 0 km/h
366 26-05-2005 01:10:02 16.9 C 10.21 g/m*3 16.9 C 0 km/h
367 26-05-2005 01:22:02 16.6 C 10.17 g/m*3 16.6 C 0 km/h
368 26-05-2005 01:34:02 16.4 C 10.19 g/m*3 16.4 C 0 km/h
369 26-05-2005 01:46:02 16.2 C 10.2 g/m*3 16.2 C 0 km/h
370 26-05-2005 01:58:02 16 C 10.08 g/m*3 16 C 0 km/h
371 26-05-2005 02:10:02 15.9 C 10.29 g/m*3 15.9 C 0 km/h
372 26-05-2005 02:22:02 15.7 C 10.17 g/m*3 15.7 C 0 km/h
373 26-05-2005 02:34:02 15.5 C 10.05 g/m*3 15.5 C 0 km/h
374 26-05-2005 02:47:04 15.2 C 9.99 g/m*3 15.2 C 0 km/h
375 26-05-2005 02:59:04 15.1 C 10.06 g/m*3 15.1 C 0 km/h
Sensor: Nr:Datum:Temp:Abs-Feuchte:Windchill:Wind:
Aussen-T/F 376 26-05-2005 03:11:04 15 C 10 g/m*3 15 C 0 km/h
377 26-05-2005 03:23:04 14.9 C 10.07 g/m*3 14.9 C 0 km/h
378 26-05-2005 03:35:02 15 C 10 g/m*3 15 C 0 km/h
379 26-05-2005 03:47:02 14.4 C 9.77 g/m*3 14.4 C 0 km/h
380 26-05-2005 03:59:02 14.2 C 9.77 g/m*3 14.2 C 0 km/h
381 26-05-2005 04:11:02 14.2 C 9.89 g/m*3 14.2 C 0 km/h
382 26-05-2005 04:23:02 14.1 C 9.83 g/m*3 14.1 C 0 km/h
383 26-05-2005 04:35:02 14 C 9.77 g/m*3 14 C 0 km/h
384 26-05-2005 04:47:02 13.8 C 9.77 g/m*3 13.8 C 0 km/h
385 26-05-2005 04:59:02 13.6 C 9.65 g/m*3 13.6 C 0 km/h
386 26-05-2005 05:11:01 13.5 C 9.59 g/m*3 13.5 C 0 km/h
387 26-05-2005 05:23:02 13.5 C 9.71 g/m*3 13.5 C 0 km/h
388 26-05-2005 05:35:01 13.2 C 9.64 g/m*3 13.2 C 0 km/h
389 26-05-2005 05:47:01 13.2 C 9.53 g/m*3 13.2 C 0 km/h
390 26-05-2005 05:59:01 13.3 C 9.59 g/m*3 13.3 C 0 km/h
391 26-05-2005 06:11:01 13.4 C 9.65 g/m*3 13.4 C 0 km/h
392 26-05-2005 06:23:01 13.4 C 9.65 g/m*3 13.4 C 0 km/h
393 26-05-2005 06:35:01 13.5 C 9.71 g/m*3 13.5 C 0 km/h
394 26-05-2005 06:47:02 13.7 C 9.83 g/m*3 13.7 C 0 km/h
395 26-05-2005 06:59:02 13.7 C 9.71 g/m*3 13.7 C 0 km/h
396 26-05-2005 07:11:02 13.7 C 9.71 g/m*3 13.7 C 0 km/h
397 26-05-2005 07:23:02 13.9 C 9.95 g/m*3 13.9 C 0 km/h
398 26-05-2005 07:35:01 14 C 9.89 g/m*3 14 C 0 km/h
399 26-05-2005 07:47:02 14.2 C 10.01 g/m*3 14.2 C 0 km/h
400 26-05-2005 07:59:03 14.4 C 10.01 g/m*3 14.4 C 0 km/h
Sensor: Nr:Datum:Temp:Abs-Feuchte:Windchill:Wind:
Aussen-T/F 401 26-05-2005 08:11:02 14.5 C 10.07 g/m*3 14.5 C 0 km/h
402 26-05-2005 08:23:02 15 C 10.26 g/m*3 15 C 0 km/h
403 26-05-2005 08:35:01 15.6 C 10.51 g/m*3 15.6 C 0 km/h
404 26-05-2005 08:47:02 16.1 C 10.42 g/m*3 16.1 C 0 km/h
405 26-05-2005 08:59:02 16.8 C 10.72 g/m*3 16.8 C 0 km/h
406 26-05-2005 09:11:02 17.7 C 11.01 g/m*3 17.7 C 0 km/h
407 26-05-2005 09:23:02 18.6 C 11.3 g/m*3 18.6 C 0 km/h
408 26-05-2005 09:35:03 19.3 C 11.11 g/m*3 19.3 C 0 km/h
409 26-05-2005 09:47:02 20.3 C 11.08 g/m*3 20.3 C 0 km/h
410 26-05-2005 09:59:02 20.8 C 10.68 g/m*3 20.8 C 0 km/h
411 26-05-2005 10:11:03 21.8 C 11.13 g/m*3 21.8 C 0 km/h
412 26-05-2005 10:23:03 22.7 C 11.11 g/m*3 22.7 C 0 km/h
413 26-05-2005 10:35:03 23.5 C 10.57 g/m*3 23.5 C 0 km/h
414 26-05-2005 10:47:04 24.1 C 9.41 g/m*3 24.1 C 0 km/h
415 26-05-2005 10:59:04 24.4 C 9.79 g/m*3 24.4 C 0 km/h
416 26-05-2005 11:11:03 25 C 11.74 g/m*3 25 C 0 km/h
417 26-05-2005 11:23:02 26 C 9.49 g/m*3 26 C 0 km/h
418 26-05-2005 11:35:02 26.7 C 9.87 g/m*3 26.7 C 0 km/h
419 26-05-2005 11:47:02 27.2 C 9.11 g/m*3 27.2 C 0 km/h
420 26-05-2005 11:59:02 27.4 C 8.95 g/m*3 27.4 C 0 km/h
421 26-05-2005 12:11:02 28.4 C 8.34 g/m*3 28.4 C 0 km/h
422 26-05-2005 12:23:02 28.9 C 8.57 g/m*3 28.9 C 0 km/h
423 26-05-2005 12:35:02 29.6 C 8.01 g/m*3 29.6 C 0 km/h
424 26-05-2005 12:47:03 30.3 C 8.32 g/m*3 30.3 C 0 km/h
425 26-05-2005 12:59:03 30.6 C 8.14 g/m*3 30.6 C 0 km/h
Sensor: Nr:Datum:Temp:Abs-Feuchte:Windchill:Wind:
Aussen-T/F 426 26-05-2005 13:11:02 30.9 C 7.96 g/m*3 30.9 C 0 km/h
427 26-05-2005 13:23:02 31.2 C 7.12 g/m*3 31.2 C 0 km/h
428 26-05-2005 13:35:02 31.3 C 7.15 g/m*3 31.3 C 0 km/h
429 26-05-2005 13:47:02 31.2 C 8.09 g/m*3 31.2 C 0 km/h
430 26-05-2005 13:59:02 31 C 8 g/m*3 31 C 0 km/h
431 26-05-2005 14:11:03 30.7 C 8.19 g/m*3 30.7 C 0 km/h
432 26-05-2005 14:23:02 30.7 C 7.87 g/m*3 30.7 C 0 km/h
433 26-05-2005 14:35:02 31 C 8 g/m*3 31 C 0 km/h
434 26-05-2005 14:47:02 31.3 C 7.81 g/m*3 31.3 C 0 km/h
435 26-05-2005 14:59:02 31.5 C 7.56 g/m*3 31.5 C 0 km/h
436 26-05-2005 15:11:02 32.1 C 7.13 g/m*3 32.1 C 0 km/h
437 26-05-2005 15:23:02 32.1 C 7.47 g/m*3 32.1 C 0 km/h
438 26-05-2005 15:35:02 32.3 C 6.86 g/m*3 32.3 C 0 km/h
439 26-05-2005 15:47:02 32 C 7.09 g/m*3 32 C 0 km/h
440 26-05-2005 15:59:02 31.9 C 6.72 g/m*3 31.9 C 0 km/h
441 26-05-2005 16:11:02 31.7 C 7.31 g/m*3 31.7 C 0 km/h
442 26-05-2005 16:23:05 31.3 C 7.48 g/m*3 31.3 C 0 km/h
443 26-05-2005 16:35:11 31 C 8 g/m*3 31 C 0 km/h
444 26-05-2005 16:47:02 31.5 C 7.89 g/m*3 31.5 C 0 km/h
445 26-05-2005 16:59:02 31.9 C 8.39 g/m*3 31.9 C 0 km/h
446 26-05-2005 17:11:01 32.8 C 7.75 g/m*3 32.8 C 0 km/h
447 26-05-2005 17:23:02 33.1 C 7.16 g/m*3 33.1 C 0 km/h
448 26-05-2005 17:35:01 33 C 7.12 g/m*3 33 C 0 km/h
449 26-05-2005 17:47:02 32.8 C 7.4 g/m*3 32.8 C 0 km/h
450 26-05-2005 17:59:02 33.1 C 7.52 g/m*3 33.1 C 0 km/h
Sensor: Nr:Datum:Temp:Abs-Feuchte:Windchill:Wind:
Aussen-T/F 451 26-05-2005 18:11:02 33.2 C 7.55 g/m*3 33.2 C 0 km/h
452 26-05-2005 18:23:02 33.3 C 7.23 g/m*3 33.3 C 0 km/h
453 26-05-2005 18:35:02 33.3 C 7.23 g/m*3 33.3 C 0 km/h
454 26-05-2005 18:47:02 32.8 C 7.75 g/m*3 32.8 C 0 km/h
455 26-05-2005 18:59:02 32.5 C 9.36 g/m*3 32.5 C 0 km/h
456 26-05-2005 19:11:02 32.2 C 8.53 g/m*3 32.2 C 0 km/h
457 26-05-2005 19:23:04 32.3 C 7.55 g/m*3 32.3 C 0 km/h
458 26-05-2005 19:35:03 32.6 C 8.71 g/m*3 32.6 C 0 km/h
459 26-05-2005 19:47:02 32.2 C 7.85 g/m*3 32.2 C 0 km/h
460 26-05-2005 19:59:02 31.8 C 8.35 g/m*3 31.8 C 0 km/h
461 26-05-2005 20:11:02 30.7 C 8.5 g/m*3 30.7 C 0 km/h
462 26-05-2005 20:23:02 29.3 C 9.34 g/m*3 29.3 C 0 km/h
463 26-05-2005 20:35:03 27.9 C 9.2 g/m*3 27.9 C 0 km/h
464 26-05-2005 20:47:02 27.1 C 9.06 g/m*3 27.1 C 0 km/h
465 26-05-2005 20:59:02 26.5 C 9.01 g/m*3 26.5 C 0 km/h
466 26-05-2005 21:11:05 26 C 8.76 g/m*3 26 C 0 km/h
467 26-05-2005 21:23:03 25.7 C 8.86 g/m*3 25.7 C 0 km/h
468 26-05-2005 21:35:03 25.6 C 9.05 g/m*3 25.6 C 0 km/h
469 26-05-2005 21:47:02 25 C 9.21 g/m*3 25 C 0 km/h
470 26-05-2005 21:59:02 24.6 C 9.23 g/m*3 24.6 C 0 km/h
471 26-05-2005 22:11:03 24.4 C 9.12 g/m*3 24.4 C 0 km/h
472 26-05-2005 22:23:03 24.1 C 9.63 g/m*3 24.1 C 0 km/h
473 26-05-2005 22:35:02 24.1 C 9.41 g/m*3 24.1 C 0 km/h
474 26-05-2005 22:47:02 23.6 C 10 g/m*3 23.6 C 0 km/h
475 26-05-2005 22:59:02 23.1 C 10.34 g/m*3 23.1 C 0 km/h
Sensor: Nr:Datum:Temp:Abs-Feuchte:Windchill:Wind:
Aussen-T/F 476 26-05-2005 23:11:01 22.4 C 10.33 g/m*3 22.4 C 0 km/h
477 26-05-2005 23:23:02 22.4 C 10.72 g/m*3 22.4 C 0 km/h
478 26-05-2005 23:35:02 22.1 C 10.54 g/m*3 22.1 C 0 km/h
479 26-05-2005 23:47:02 21.7 C 10.68 g/m*3 21.7 C 0 km/h
480 26-05-2005 23:59:02 21.1 C 10.87 g/m*3 21.1 C 0 km/h
481 27-05-2005 00:11:02 21 C 10.62 g/m*3 21 C 0 km/h
482 27-05-2005 00:23:03 20.7 C 10.8 g/m*3 20.7 C 0 km/h
483 27-05-2005 00:35:01 20.5 C 10.68 g/m*3 20.5 C 0 km/h
484 27-05-2005 00:47:02 20.3 C 10.38 g/m*3 20.3 C 0 km/h
485 27-05-2005 00:59:02 20.2 C 10.32 g/m*3 20.2 C 0 km/h
486 27-05-2005 01:11:02 20.2 C 10.49 g/m*3 20.2 C 0 km/h
487 27-05-2005 01:23:01 20 C 10.37 g/m*3 20 C 0 km/h
488 27-05-2005 01:35:01 20 C 10.37 g/m*3 20 C 0 km/h
489 27-05-2005 01:47:01 19.5 C 10.57 g/m*3 19.5 C 0 km/h
490 27-05-2005 01:59:01 18.9 C 11.02 g/m*3 18.9 C 0 km/h
491 27-05-2005 02:11:01 18.8 C 10.79 g/m*3 18.8 C 0 km/h
492 27-05-2005 02:23:02 18.7 C 10.89 g/m*3 18.7 C 0 km/h
493 27-05-2005 02:35:01 18.6 C 10.82 g/m*3 18.6 C 0 km/h
494 27-05-2005 02:48:04 18.5 C 10.76 g/m*3 18.5 C 0 km/h
495 27-05-2005 03:00:05 18.2 C 10.72 g/m*3 18.2 C 0 km/h
496 27-05-2005 03:12:04 18 C 10.75 g/m*3 18 C 0 km/h
497 27-05-2005 03:24:04 17.9 C 10.84 g/m*3 17.9 C 0 km/h
498 27-05-2005 03:36:02 17.7 C 10.71 g/m*3 17.7 C 0 km/h
499 27-05-2005 03:48:02 17.7 C 10.86 g/m*3 17.7 C 0 km/h
500 27-05-2005 04:00:02 17.5 C 10.88 g/m*3 17.5 C 0 km/h
Sensor: Nr:Datum:Temp:Abs-Feuchte:Windchill:Wind:
Aussen-T/F 501 27-05-2005 04:12:02 17.3 C 10.75 g/m*3 17.3 C 0 km/h
502 27-05-2005 04:24:02 17.3 C 10.75 g/m*3 17.3 C 0 km/h
503 27-05-2005 04:36:02 17.1 C 10.77 g/m*3 17.1 C 0 km/h
504 27-05-2005 04:48:02 17 C 10.71 g/m*3 17 C 0 km/h
505 27-05-2005 05:00:02 16.9 C 10.79 g/m*3 16.9 C 0 km/h
506 27-05-2005 05:12:02 16.6 C 10.59 g/m*3 16.6 C 0 km/h
507 27-05-2005 05:24:02 16.4 C 10.75 g/m*3 16.4 C 0 km/h
508 27-05-2005 05:36:02 16.2 C 10.76 g/m*3 16.2 C 0 km/h
509 27-05-2005 05:48:02 16.1 C 10.55 g/m*3 16.1 C 0 km/h
510 27-05-2005 06:00:02 16 C 10.63 g/m*3 16 C 0 km/h
511 27-05-2005 06:12:02 16 C 10.63 g/m*3 16 C 0 km/h
512 27-05-2005 06:24:02 16.1 C 10.83 g/m*3 16.1 C 0 km/h
513 27-05-2005 06:36:02 16.2 C 10.89 g/m*3 16.2 C 0 km/h
514 27-05-2005 06:48:02 16.2 C 10.89 g/m*3 16.2 C 0 km/h
515 27-05-2005 07:00:02 16.4 C 11.03 g/m*3 16.4 C 0 km/h
516 27-05-2005 07:12:02 16.6 C 10.88 g/m*3 16.6 C 0 km/h
517 27-05-2005 07:24:02 16.8 C 11.01 g/m*3 16.8 C 0 km/h
518 27-05-2005 07:36:02 17 C 11 g/m*3 17 C 0 km/h
519 27-05-2005 07:48:02 17 C 10.85 g/m*3 17 C 0 km/h
520 27-05-2005 08:00:03 17.2 C 11.13 g/m*3 17.2 C 0 km/h
521 27-05-2005 08:12:02 17.4 C 11.12 g/m*3 17.4 C 0 km/h
522 27-05-2005 08:24:02 17.9 C 11.3 g/m*3 17.9 C 0 km/h
523 27-05-2005 08:36:01 18.2 C 11.04 g/m*3 18.2 C 0 km/h
524 27-05-2005 08:48:02 18.6 C 11.46 g/m*3 18.6 C 0 km/h
525 27-05-2005 09:00:02 19.2 C 11.54 g/m*3 19.2 C 0 km/h
Sensor: Nr:Datum:Temp:Abs-Feuchte:Windchill:Wind:
Aussen-T/F 526 27-05-2005 09:12:02 19.7 C 11.38 g/m*3 19.7 C 0 km/h
527 27-05-2005 09:24:03 20.3 C 11.26 g/m*3 20.3 C 0 km/h
528 27-05-2005 09:36:02 20.9 C 11.84 g/m*3 20.9 C 0 km/h
529 27-05-2005 09:48:02 21.7 C 12.02 g/m*3 21.7 C 0 km/h
530 27-05-2005 10:00:02 22.8 C 11.99 g/m*3 22.8 C 0 km/h
531 27-05-2005 10:12:02 23.6 C 12.12 g/m*3 23.6 C 0 km/h
532 27-05-2005 10:24:02 24.1 C 11.6 g/m*3 24.1 C 0 km/h
533 27-05-2005 10:36:02 24.8 C 11.84 g/m*3 24.8 C 0 km/h
534 27-05-2005 10:48:02 25.5 C 11.84 g/m*3 25.5 C 0 km/h
535 27-05-2005 11:00:02 26.3 C 12.13 g/m*3 26.3 C 0 km/h
536 27-05-2005 11:12:02 26.9 C 12.29 g/m*3 26.9 C 0 km/h
537 27-05-2005 11:24:02 27.5 C 12.43 g/m*3 27.5 C 0 km/h
538 27-05-2005 11:36:02 27.7 C 12.04 g/m*3 27.7 C 0 km/h
539 27-05-2005 11:48:01 28.8 C 11.36 g/m*3 28.8 C 0 km/h
540 27-05-2005 12:00:01 29.4 C 12.33 g/m*3 29.4 C 0 km/h
541 27-05-2005 12:12:02 30.3 C 11.4 g/m*3 30.3 C 0 km/h
542 27-05-2005 12:24:01 30.6 C 9.4 g/m*3 30.6 C 0 km/h
543 27-05-2005 12:36:02 31 C 9.28 g/m*3 31 C 0 km/h
544 27-05-2005 12:48:02 31.7 C 8.97 g/m*3 31.7 C 0 km/h
545 27-05-2005 13:00:02 32.2 C 8.53 g/m*3 32.2 C 0 km/h
546 27-05-2005 13:12:02 32.3 C 6.86 g/m*3 32.3 C 0 km/h
547 27-05-2005 13:24:02 32.7 C 7.01 g/m*3 32.7 C 0 km/h
548 27-05-2005 13:36:02 32.4 C 6.9 g/m*3 32.4 C 0 km/h
549 27-05-2005 13:48:02 32.6 C 6.97 g/m*3 32.6 C 0 km/h
550 27-05-2005 14:00:02 32.6 C 6.97 g/m*3 32.6 C 0 km/h
Sensor: Nr:Datum:Temp:Abs-Feuchte:Windchill:Wind:
Aussen-T/F 551 27-05-2005 14:12:02 32.6 C 6.97 g/m*3 32.6 C 0 km/h
552 27-05-2005 14:24:02 32.7 C 7.01 g/m*3 32.7 C 0 km/h
553 27-05-2005 14:36:02 32.5 C 6.93 g/m*3 32.5 C 0 km/h
554 27-05-2005 14:48:02 32.3 C 7.2 g/m*3 32.3 C 0 km/h
555 27-05-2005 15:00:02 32.9 C 7.08 g/m*3 32.9 C 0 km/h
556 27-05-2005 15:12:02 33.1 C 7.16 g/m*3 33.1 C 0 km/h
557 27-05-2005 15:24:02 33.5 C 7.31 g/m*3 33.5 C 0 km/h
558 27-05-2005 15:36:02 33.6 C 7.35 g/m*3 33.6 C 0 km/h
559 27-05-2005 15:48:01 33.9 C 7.46 g/m*3 33.9 C 0 km/h
560 27-05-2005 16:00:01 33.8 C 7.43 g/m*3 33.8 C 0 km/h
561 27-05-2005 16:12:02 34 C 7.5 g/m*3 34 C 0 km/h
562 27-05-2005 16:24:02 33.9 C 7.46 g/m*3 33.9 C 0 km/h
563 27-05-2005 16:36:01 34.3 C 7.62 g/m*3 34.3 C 0 km/h
564 27-05-2005 16:48:02 34.4 C 7.66 g/m*3 34.4 C 0 km/h
565 27-05-2005 17:00:02 34.3 C 7.62 g/m*3 34.3 C 0 km/h
566 27-05-2005 17:12:02 34.4 C 7.66 g/m*3 34.4 C 0 km/h
567 27-05-2005 17:24:02 34.6 C 7.74 g/m*3 34.6 C 0 km/h
568 27-05-2005 17:36:03 34.5 C 7.7 g/m*3 34.5 C 0 km/h
569 27-05-2005 17:48:02 34.7 C 7.78 g/m*3 34.7 C 0 km/h
570 27-05-2005 18:00:02 34.6 C 7.74 g/m*3 34.6 C 0 km/h
571 27-05-2005 18:12:02 34.8 C 7.82 g/m*3 34.8 C 0 km/h
572 27-05-2005 18:24:02 34.7 C 7.78 g/m*3 34.7 C 0 km/h
573 27-05-2005 18:36:02 34.7 C 7.78 g/m*3 34.7 C 0 km/h
574 27-05-2005 18:48:02 34.4 C 7.66 g/m*3 34.4 C 0 km/h
575 27-05-2005 19:00:02 34.2 C 7.96 g/m*3 34.2 C 0 km/h
Sensor: Nr:Datum:Temp:Abs-Feuchte:Windchill:Wind:
Aussen-T/F 576 27-05-2005 19:12:02 33.8 C 8.91 g/m*3 33.8 C 0 km/h
577 27-05-2005 19:24:02 33.1 C 8.95 g/m*3 33.1 C 0 km/h
578 27-05-2005 19:36:02 33.4 C 9.09 g/m*3 33.4 C 0 km/h
579 27-05-2005 19:48:01 33.2 C 9.35 g/m*3 33.2 C 0 km/h
580 27-05-2005 20:00:01 33 C 9.61 g/m*3 33 C 0 km/h
581 27-05-2005 20:12:02 32.5 C 10.05 g/m*3 32.5 C 0 km/h
582 27-05-2005 20:24:02 32 C 10.47 g/m*3 32 C 0 km/h
583 27-05-2005 20:36:02 31.4 C 10.46 g/m*3 31.4 C 0 km/h
584 27-05-2005 20:48:02 30.6 C 10.96 g/m*3 30.6 C 0 km/h
585 27-05-2005 21:00:02 29.7 C 11.34 g/m*3 29.7 C 0 km/h
586 27-05-2005 21:12:02 28.7 C 11.59 g/m*3 28.7 C 0 km/h
587 27-05-2005 21:24:02 27.8 C 11.3 g/m*3 27.8 C 0 km/h
588 27-05-2005 21:36:02 27.2 C 11.19 g/m*3 27.2 C 0 km/h
589 27-05-2005 21:48:01 26.5 C 11.26 g/m*3 26.5 C 0 km/h
590 27-05-2005 22:00:01 26 C 10.96 g/m*3 26 C 0 km/h
591 27-05-2005 22:12:01 25.5 C 10.89 g/m*3 25.5 C 0 km/h
592 27-05-2005 22:24:02 25.7 C 11.25 g/m*3 25.7 C 0 km/h
593 27-05-2005 22:36:02 25.7 C 11.01 g/m*3 25.7 C 0 km/h
594 27-05-2005 22:48:01 25.5 C 10.89 g/m*3 25.5 C 0 km/h
595 27-05-2005 23:00:01 25.4 C 11.06 g/m*3 25.4 C 0 km/h
596 27-05-2005 23:12:01 25.3 C 10.77 g/m*3 25.3 C 0 km/h
597 27-05-2005 23:24:01 25.2 C 10.71 g/m*3 25.2 C 0 km/h
598 27-05-2005 23:36:02 24.9 C 10.76 g/m*3 24.9 C 0 km/h
599 27-05-2005 23:48:01 24.8 C 10.93 g/m*3 24.8 C 0 km/h
600 28-05-2005 00:00:01 24.4 C 10.68 g/m*3 24.4 C 0 km/h
Sensor: Nr:Datum:Temp:Abs-Feuchte:Windchill:Wind:
Aussen-T/F 601 28-05-2005 00:12:02 24.2 C 11 g/m*3 24.2 C 0 km/h
602 28-05-2005 00:24:02 23.9 C 11.47 g/m*3 23.9 C 0 km/h
603 28-05-2005 00:36:01 23.5 C 11.21 g/m*3 23.5 C 0 km/h
604 28-05-2005 00:48:02 23.1 C 11.16 g/m*3 23.1 C 0 km/h
605 28-05-2005 01:00:02 22.9 C 11.44 g/m*3 22.9 C 0 km/h
606 28-05-2005 01:12:02 22.5 C 11.58 g/m*3 22.5 C 0 km/h
607 28-05-2005 01:24:02 22.1 C 11.52 g/m*3 22.1 C 0 km/h
608 28-05-2005 01:36:02 21.7 C 11.83 g/m*3 21.7 C 0 km/h
609 28-05-2005 01:48:02 21.6 C 11.95 g/m*3 21.6 C 0 km/h
610 28-05-2005 02:00:02 21.4 C 11.81 g/m*3 21.4 C 0 km/h
611 28-05-2005 02:12:02 21.1 C 11.79 g/m*3 21.1 C 0 km/h
612 28-05-2005 02:24:02 20.9 C 11.66 g/m*3 20.9 C 0 km/h
613 28-05-2005 02:36:02 20.7 C 11.7 g/m*3 20.7 C 0 km/h
614 28-05-2005 02:49:04 20.5 C 11.74 g/m*3 20.5 C 0 km/h
615 28-05-2005 03:01:04 20 C 11.75 g/m*3 20 C 0 km/h
616 28-05-2005 03:13:04 19.8 C 11.79 g/m*3 19.8 C 0 km/h
617 28-05-2005 03:25:04 19.2 C 11.71 g/m*3 19.2 C 0 km/h
618 28-05-2005 03:37:02 19.2 C 11.87 g/m*3 19.2 C 0 km/h
619 28-05-2005 03:49:02 19.1 C 11.8 g/m*3 19.1 C 0 km/h
620 28-05-2005 04:01:03 18.9 C 11.83 g/m*3 18.9 C 0 km/h
621 28-05-2005 04:13:03 18.9 C 11.99 g/m*3 18.9 C 0 km/h
622 28-05-2005 04:25:02 18.8 C 11.92 g/m*3 18.8 C 0 km/h
623 28-05-2005 04:37:02 18.7 C 11.85 g/m*3 18.7 C 0 km/h
624 28-05-2005 04:49:02 18.5 C 11.71 g/m*3 18.5 C 0 km/h
625 28-05-2005 05:01:02 18.4 C 11.8 g/m*3 18.4 C 0 km/h
Sensor: Nr:Datum:Temp:Abs-Feuchte:Windchill:Wind:
Aussen-T/F 626 28-05-2005 05:13:02 18.2 C 11.66 g/m*3 18.2 C 0 km/h
627 28-05-2005 05:25:02 17.9 C 11.6 g/m*3 17.9 C 0 km/h
628 28-05-2005 05:37:02 17.7 C 11.77 g/m*3 17.7 C 0 km/h
629 28-05-2005 05:49:02 17.8 C 11.84 g/m*3 17.8 C 0 km/h
630 28-05-2005 06:01:02 17.8 C 11.84 g/m*3 17.8 C 0 km/h
631 28-05-2005 06:13:02 17.9 C 11.91 g/m*3 17.9 C 0 km/h
632 28-05-2005 06:25:02 17.8 C 11.84 g/m*3 17.8 C 0 km/h
633 28-05-2005 06:37:02 17.7 C 11.92 g/m*3 17.7 C 0 km/h
634 28-05-2005 06:49:02 17.8 C 11.99 g/m*3 17.8 C 0 km/h
635 28-05-2005 07:01:02 17.9 C 12.06 g/m*3 17.9 C 0 km/h
636 28-05-2005 07:13:02 17.9 C 12.06 g/m*3 17.9 C 0 km/h
637 28-05-2005 07:25:02 17.9 C 11.91 g/m*3 17.9 C 0 km/h
638 28-05-2005 07:37:02 18.2 C 11.97 g/m*3 18.2 C 0 km/h
639 28-05-2005 07:49:02 18.4 C 12.11 g/m*3 18.4 C 0 km/h
640 28-05-2005 08:01:02 18.7 C 12.01 g/m*3 18.7 C 0 km/h
641 28-05-2005 08:13:02 19 C 11.9 g/m*3 19 C 0 km/h
642 28-05-2005 08:25:02 19.1 C 11.97 g/m*3 19.1 C 0 km/h
643 28-05-2005 08:37:02 19.5 C 12.42 g/m*3 19.5 C 0 km/h
644 28-05-2005 08:49:02 20 C 12.62 g/m*3 20 C 0 km/h
645 28-05-2005 09:01:02 20.6 C 12.89 g/m*3 20.6 C 0 km/h
646 28-05-2005 09:13:02 21.3 C 12.86 g/m*3 21.3 C 0 km/h
647 28-05-2005 09:25:02 22.1 C 12.69 g/m*3 22.1 C 0 km/h
648 28-05-2005 09:37:02 22.5 C 13.18 g/m*3 22.5 C 0 km/h
649 28-05-2005 09:49:02 23.6 C 13.4 g/m*3 23.6 C 0 km/h
650 28-05-2005 10:01:02 24.3 C 13.28 g/m*3 24.3 C 0 km/h
Sensor: Nr:Datum:Temp:Abs-Feuchte:Windchill:Wind:
Aussen-T/F 651 28-05-2005 10:13:02 24.7 C 12.45 g/m*3 24.7 C 0 km/h
652 28-05-2005 10:25:04 25.6 C 13.33 g/m*3 25.6 C 0 km/h
653 28-05-2005 10:37:03 26.3 C 12.87 g/m*3 26.3 C 0 km/h
654 28-05-2005 10:49:02 26.7 C 12.4 g/m*3 26.7 C 0 km/h
655 28-05-2005 11:01:02 27.2 C 12.23 g/m*3 27.2 C 0 km/h
656 28-05-2005 11:13:02 27.8 C 12.1 g/m*3 27.8 C 0 km/h
657 28-05-2005 11:25:01 28.2 C 12.1 g/m*3 28.2 C 0 km/h
658 28-05-2005 11:37:01 28.5 C 11.74 g/m*3 28.5 C 0 km/h
659 28-05-2005 11:49:01 29.1 C 11.84 g/m*3 29.1 C 0 km/h
660 28-05-2005 12:01:01 29.5 C 11.51 g/m*3 29.5 C 0 km/h
661 28-05-2005 12:13:01 30.1 C 11.28 g/m*3 30.1 C 0 km/h
662 28-05-2005 12:25:02 30.3 C 11.1 g/m*3 30.3 C 0 km/h
663 28-05-2005 12:37:02 30.7 C 11.02 g/m*3 30.7 C 0 km/h
664 28-05-2005 12:49:02 31.1 C 10.62 g/m*3 31.1 C 0 km/h
665 28-05-2005 13:01:02 31 C 10.24 g/m*3 31 C 0 km/h
666 28-05-2005 13:13:02 31.5 C 10.19 g/m*3 31.5 C 0 km/h
667 28-05-2005 13:25:02 31.8 C 10.02 g/m*3 31.8 C 0 km/h
668 28-05-2005 13:37:02 31.7 C 8.97 g/m*3 31.7 C 0 km/h
669 28-05-2005 13:49:02 32.1 C 9.16 g/m*3 32.1 C 0 km/h
670 28-05-2005 14:01:02 31.8 C 9.35 g/m*3 31.8 C 0 km/h
671 28-05-2005 14:13:02 31.9 C 8.73 g/m*3 31.9 C 0 km/h
672 28-05-2005 14:25:02 32 C 9.11 g/m*3 32 C 0 km/h
673 28-05-2005 14:37:02 32.1 C 8.82 g/m*3 32.1 C 0 km/h
674 28-05-2005 14:49:01 32.2 C 8.87 g/m*3 32.2 C 0 km/h
675 28-05-2005 15:01:01 32.3 C 8.58 g/m*3 32.3 C 0 km/h
Sensor: Nr:Datum:Temp:Abs-Feuchte:Windchill:Wind:
Aussen-T/F 676 28-05-2005 15:13:01 32.5 C 9.01 g/m*3 32.5 C 0 km/h
677 28-05-2005 15:25:01 32.7 C 8.76 g/m*3 32.7 C 0 km/h
678 28-05-2005 15:37:01 32.8 C 8.1 g/m*3 32.8 C 0 km/h
679 28-05-2005 15:49:01 32.4 C 8.28 g/m*3 32.4 C 0 km/h
680 28-05-2005 16:01:01 32.8 C 8.1 g/m*3 32.8 C 0 km/h
681 28-05-2005 16:13:01 32.8 C 8.1 g/m*3 32.8 C 0 km/h
682 28-05-2005 16:25:02 32.5 C 8.67 g/m*3 32.5 C 0 km/h
683 28-05-2005 16:37:02 33 C 8.54 g/m*3 33 C 0 km/h
684 28-05-2005 16:49:02 32.9 C 7.44 g/m*3 32.9 C 0 km/h
685 28-05-2005 17:01:02 33 C 7.48 g/m*3 33 C 0 km/h
686 28-05-2005 17:13:03 33.2 C 7.55 g/m*3 33.2 C 0 km/h
687 28-05-2005 17:25:02 32.8 C 7.4 g/m*3 32.8 C 0 km/h
688 28-05-2005 17:37:02 33 C 7.83 g/m*3 33 C 0 km/h
689 28-05-2005 17:49:02 33 C 7.83 g/m*3 33 C 0 km/h
690 28-05-2005 18:01:02 33.1 C 8.23 g/m*3 33.1 C 0 km/h
691 28-05-2005 18:13:02 32.9 C 7.79 g/m*3 32.9 C 0 km/h
692 28-05-2005 18:25:02 32.9 C 8.14 g/m*3 32.9 C 0 km/h
693 28-05-2005 18:37:02 32.6 C 8.71 g/m*3 32.6 C 0 km/h
694 28-05-2005 18:49:02 32.6 C 9.06 g/m*3 32.6 C 0 km/h
695 28-05-2005 19:01:02 32.1 C 10.18 g/m*3 32.1 C 0 km/h
696 28-05-2005 19:13:02 32.3 C 9.6 g/m*3 32.3 C 0 km/h
697 28-05-2005 19:25:02 31.7 C 9.97 g/m*3 31.7 C 0 km/h
698 28-05-2005 19:37:02 32.1 C 10.18 g/m*3 32.1 C 0 km/h
699 28-05-2005 19:49:02 31.9 C 10.41 g/m*3 31.9 C 0 km/h
700 28-05-2005 20:01:02 31.3 C 10.73 g/m*3 31.3 C 0 km/h
Sensor: Nr:Datum:Temp:Abs-Feuchte:Windchill:Wind:
Aussen-T/F 701 28-05-2005 20:13:02 31 C 11.2 g/m*3 31 C 0 km/h
702 28-05-2005 20:25:02 30.8 C 10.45 g/m*3 30.8 C 0 km/h
703 28-05-2005 20:37:02 30.3 C 10.79 g/m*3 30.3 C 0 km/h
704 28-05-2005 20:49:02 30 C 11.83 g/m*3 30 C 0 km/h
705 28-05-2005 21:01:03 29.1 C 10.97 g/m*3 29.1 C 0 km/h
706 28-05-2005 21:13:03 28.8 C 11.08 g/m*3 28.8 C 0 km/h
707 28-05-2005 21:25:03 28.3 C 11.06 g/m*3 28.3 C 0 km/h
708 28-05-2005 21:37:03 28 C 11.15 g/m*3 28 C 0 km/h
709 28-05-2005 21:49:02 27.7 C 11.23 g/m*3 27.7 C 0 km/h
710 28-05-2005 22:01:02 27.1 C 10.87 g/m*3 27.1 C 0 km/h
711 28-05-2005 22:13:02 27 C 11.32 g/m*3 27 C 0 km/h
712 28-05-2005 22:25:01 26.7 C 11.14 g/m*3 26.7 C 0 km/h
713 28-05-2005 22:37:02 26.3 C 10.64 g/m*3 26.3 C 0 km/h
714 28-05-2005 22:50:02 25.7 C 10.53 g/m*3 25.7 C 0 km/h
715 28-05-2005 23:02:02 25.6 C 10.95 g/m*3 25.6 C 0 km/h
716 28-05-2005 23:14:02 25.4 C 11.06 g/m*3 25.4 C 0 km/h
717 28-05-2005 23:26:02 25.2 C 11.41 g/m*3 25.2 C 0 km/h
718 28-05-2005 23:38:02 25.1 C 11.11 g/m*3 25.1 C 0 km/h
719 28-05-2005 23:50:02 24.8 C 11.15 g/m*3 24.8 C 0 km/h
720 29-05-2005 00:02:02 24.6 C 11.25 g/m*3 24.6 C 0 km/h
721 29-05-2005 00:14:02 24.4 C 11.13 g/m*3 24.4 C 0 km/h
722 29-05-2005 00:26:02 24 C 11.1 g/m*3 24 C 0 km/h
723 29-05-2005 00:38:03 23.6 C 11.27 g/m*3 23.6 C 0 km/h
724 29-05-2005 00:50:03 23.1 C 11.37 g/m*3 23.1 C 0 km/h
725 29-05-2005 01:02:03 22.7 C 11.52 g/m*3 22.7 C 0 km/h
Sensor: Nr:Datum:Temp:Abs-Feuchte:Windchill:Wind:
Aussen-T/F 726 29-05-2005 01:14:03 22.7 C 11.72 g/m*3 22.7 C 0 km/h
727 29-05-2005 01:26:03 22.3 C 11.65 g/m*3 22.3 C 0 km/h
728 29-05-2005 01:38:03 22 C 11.45 g/m*3 22 C 0 km/h
729 29-05-2005 01:50:03 21.8 C 11.51 g/m*3 21.8 C 0 km/h
730 29-05-2005 02:02:03 21.9 C 11.39 g/m*3 21.9 C 0 km/h
731 29-05-2005 02:14:03 21.6 C 11.38 g/m*3 21.6 C 0 km/h
732 29-05-2005 02:26:03 21.5 C 11.13 g/m*3 21.5 C 0 km/h
733 29-05-2005 02:38:03 21.2 C 10.93 g/m*3 21.2 C 0 km/h
734 29-05-2005 02:50:03 21.1 C 10.87 g/m*3 21.1 C 0 km/h
735 29-05-2005 03:02:03 20.9 C 10.93 g/m*3 20.9 C 0 km/h
736 29-05-2005 03:14:03 20.9 C 10.93 g/m*3 20.9 C 0 km/h
737 29-05-2005 03:26:03 20.7 C 10.8 g/m*3 20.7 C 0 km/h
738 29-05-2005 03:38:03 20.4 C 10.79 g/m*3 20.4 C 0 km/h
739 29-05-2005 03:50:03 20 C 10.54 g/m*3 20 C 0 km/h
740 29-05-2005 04:02:03 19.9 C 10.65 g/m*3 19.9 C 0 km/h
741 29-05-2005 04:14:03 19.8 C 10.76 g/m*3 19.8 C 0 km/h
742 29-05-2005 04:26:03 19.6 C 10.64 g/m*3 19.6 C 0 km/h
743 29-05-2005 04:38:04 19.3 C 10.45 g/m*3 19.3 C 0 km/h
744 29-05-2005 04:50:04 19.2 C 10.39 g/m*3 19.2 C 0 km/h
745 29-05-2005 05:02:04 19.1 C 10.49 g/m*3 19.1 C 0 km/h
746 29-05-2005 05:14:04 18.9 C 10.53 g/m*3 18.9 C 0 km/h
747 29-05-2005 05:26:04 18.6 C 10.35 g/m*3 18.6 C 0 km/h
748 29-05-2005 05:38:04 18.7 C 10.41 g/m*3 18.7 C 0 km/h
749 29-05-2005 05:50:04 18.6 C 10.19 g/m*3 18.6 C 0 km/h
750 29-05-2005 06:02:04 18.4 C 10.22 g/m*3 18.4 C 0 km/h
Sensor: Nr:Datum:Temp:Abs-Feuchte:Windchill:Wind:
Aussen-T/F 751 29-05-2005 06:14:04 18.3 C 10.16 g/m*3 18.3 C 0 km/h
752 29-05-2005 06:26:04 18.4 C 10.22 g/m*3 18.4 C 0 km/h
753 29-05-2005 06:38:04 18.2 C 10.1 g/m*3 18.2 C 0 km/h
754 29-05-2005 06:50:04 18.3 C 10.16 g/m*3 18.3 C 0 km/h
755 29-05-2005 07:02:04 18.3 C 10.01 g/m*3 18.3 C 0 km/h
756 29-05-2005 07:14:04 18.4 C 10.22 g/m*3 18.4 C 0 km/h
757 29-05-2005 07:26:04 18.5 C 9.97 g/m*3 18.5 C 0 km/h
758 29-05-2005 07:38:04 18.7 C 9.93 g/m*3 18.7 C 0 km/h
759 29-05-2005 07:50:02 18.8 C 9.66 g/m*3 18.8 C 0 km/h
760 29-05-2005 08:02:03 18.5 C 9.49 g/m*3 18.5 C 0 km/h
761 29-05-2005 08:14:03 18.4 C 9.44 g/m*3 18.4 C 0 km/h
762 29-05-2005 08:26:03 18.3 C 9.38 g/m*3 18.3 C 0 km/h
763 29-05-2005 08:38:03 18.5 C 9.49 g/m*3 18.5 C 0 km/h
764 29-05-2005 08:50:05 18.7 C 9.61 g/m*3 18.7 C 0 km/h
765 29-05-2005 09:02:06 19.1 C 9.51 g/m*3 19.1 C 0 km/h
766 29-05-2005 09:14:07 19.5 C 9.73 g/m*3 19.5 C 0 km/h
767 29-05-2005 09:26:05 19.7 C 9.51 g/m*3 19.7 C 0 km/h
768 29-05-2005 09:38:07 20.4 C 9.91 g/m*3 20.4 C 0 km/h
769 29-05-2005 09:50:03 20.8 C 9.96 g/m*3 20.8 C 0 km/h
770 29-05-2005 10:02:04 21.1 C 9.77 g/m*3 21.1 C 0 km/h
771 29-05-2005 10:14:04 20.9 C 9.65 g/m*3 20.9 C 0 km/h
772 29-05-2005 10:26:05 21.7 C 9.73 g/m*3 21.7 C 0 km/h
773 29-05-2005 10:38:06 21.7 C 9.54 g/m*3 21.7 C 0 km/h
774 29-05-2005 10:50:04 22.6 C 9.64 g/m*3 22.6 C 0 km/h
775 29-05-2005 11:02:04 23.3 C 9.62 g/m*3 23.3 C 0 km/h
Sensor: Nr:Datum:Temp:Abs-Feuchte:Windchill:Wind:
Aussen-T/F 776 29-05-2005 11:14:04 24.1 C 9.85 g/m*3 24.1 C 0 km/h
777 29-05-2005 11:26:05 25.1 C 9.72 g/m*3 25.1 C 0 km/h
778 29-05-2005 11:38:03 25.7 C 10.06 g/m*3 25.7 C 0 km/h
779 29-05-2005 11:50:05 26.3 C 9.65 g/m*3 26.3 C 0 km/h
780 29-05-2005 12:02:03 26.5 C 9.51 g/m*3 26.5 C 0 km/h
781 29-05-2005 12:14:03 27.8 C 9.41 g/m*3 27.8 C 0 km/h
782 29-05-2005 12:26:02 27.1 C 9.58 g/m*3 27.1 C 0 km/h
783 29-05-2005 12:38:02 28.1 C 9.57 g/m*3 28.1 C 0 km/h
784 29-05-2005 12:50:02 28.3 C 9.68 g/m*3 28.3 C 0 km/h
785 29-05-2005 13:02:02 27.2 C 9.11 g/m*3 27.2 C 0 km/h
786 29-05-2005 13:14:02 29.4 C 9.1 g/m*3 29.4 C 0 km/h
787 29-05-2005 13:26:02 30.6 C 9.08 g/m*3 30.6 C 0 km/h
788 29-05-2005 13:38:02 30 C 9.1 g/m*3 30 C 0 km/h
789 29-05-2005 13:50:02 29.8 C 9 g/m*3 29.8 C 0 km/h
790 29-05-2005 14:02:02 29.6 C 9.2 g/m*3 29.6 C 0 km/h
791 29-05-2005 14:14:02 29.8 C 9.3 g/m*3 29.8 C 0 km/h
792 29-05-2005 14:26:03 29.9 C 9.65 g/m*3 29.9 C 0 km/h
793 29-05-2005 14:38:03 29.8 C 9.3 g/m*3 29.8 C 0 km/h
794 29-05-2005 14:50:02 29.5 C 9.44 g/m*3 29.5 C 0 km/h
795 29-05-2005 15:02:02 30 C 10.01 g/m*3 30 C 0 km/h
796 29-05-2005 15:14:02 30.2 C 9.5 g/m*3 30.2 C 0 km/h
797 29-05-2005 15:26:02 30.1 C 9.76 g/m*3 30.1 C 0 km/h
798 29-05-2005 15:38:02 30.6 C 9.4 g/m*3 30.6 C 0 km/h
799 29-05-2005 15:50:02 30.3 C 9.55 g/m*3 30.3 C 0 km/h
800 29-05-2005 16:02:02 30.6 C 8.77 g/m*3 30.6 C 0 km/h
Sensor: Nr:Datum:Temp:Abs-Feuchte:Windchill:Wind:
Aussen-T/F 801 29-05-2005 16:14:02 31 C 8.96 g/m*3 31 C 0 km/h
802 29-05-2005 16:26:03 31.5 C 8.88 g/m*3 31.5 C 0 km/h
803 29-05-2005 16:38:03 31.4 C 8.83 g/m*3 31.4 C 0 km/h
804 29-05-2005 16:50:02 31.2 C 9.06 g/m*3 31.2 C 0 km/h
805 29-05-2005 17:02:02 30.7 C 8.82 g/m*3 30.7 C 0 km/h
806 29-05-2005 17:14:02 31.2 C 8.73 g/m*3 31.2 C 0 km/h
807 29-05-2005 17:26:02 30.6 C 8.77 g/m*3 30.6 C 0 km/h
808 29-05-2005 17:38:02 30.3 C 8.63 g/m*3 30.3 C 0 km/h
809 29-05-2005 17:50:02 30.5 C 8.72 g/m*3 30.5 C 0 km/h
810 29-05-2005 18:02:02 31.1 C 9.01 g/m*3 31.1 C 0 km/h
811 29-05-2005 18:14:02 31.4 C 8.83 g/m*3 31.4 C 0 km/h
812 29-05-2005 18:26:03 30.1 C 8.54 g/m*3 30.1 C 0 km/h
813 29-05-2005 18:38:03 30.7 C 8.82 g/m*3 30.7 C 0 km/h
814 29-05-2005 18:50:01 29.3 C 9.05 g/m*3 29.3 C 0 km/h
815 29-05-2005 19:02:03 28.8 C 9.09 g/m*3 28.8 C 0 km/h
816 29-05-2005 19:14:03 28.1 C 9.3 g/m*3 28.1 C 0 km/h
817 29-05-2005 19:27:02 28 C 8.7 g/m*3 28 C 0 km/h
818 29-05-2005 19:39:02 27.8 C 8.61 g/m*3 27.8 C 0 km/h
819 29-05-2005 19:51:02 27.1 C 8.28 g/m*3 27.1 C 0 km/h
820 29-05-2005 20:03:02 26.1 C 8.08 g/m*3 26.1 C 0 km/h
821 29-05-2005 20:15:02 25.8 C 7.7 g/m*3 25.8 C 0 km/h
822 29-05-2005 20:27:02 26 C 7.3 g/m*3 26 C 0 km/h
823 29-05-2005 20:39:02 26.2 C 7.63 g/m*3 26.2 C 0 km/h
824 29-05-2005 20:51:02 25.7 C 7.42 g/m*3 25.7 C 0 km/h
825 29-05-2005 21:03:03 25.2 C 7.45 g/m*3 25.2 C 0 km/h
Sensor: Nr:Datum:Temp:Abs-Feuchte:Windchill:Wind:
Aussen-T/F 826 29-05-2005 21:15:03 24.8 C 7.97 g/m*3 24.8 C 0 km/h
827 29-05-2005 21:27:03 24.2 C 8.14 g/m*3 24.2 C 0 km/h
828 29-05-2005 21:39:03 23.7 C 8.13 g/m*3 23.7 C 0 km/h
829 29-05-2005 21:51:03 23.4 C 7.99 g/m*3 23.4 C 0 km/h
830 29-05-2005 22:03:03 22.8 C 7.92 g/m*3 22.8 C 0 km/h
831 29-05-2005 22:15:03 22.5 C 7.99 g/m*3 22.5 C 0 km/h
832 29-05-2005 22:27:03 22.2 C 8.05 g/m*3 22.2 C 0 km/h
833 29-05-2005 22:39:03 22.1 C 8 g/m*3 22.1 C 0 km/h
834 29-05-2005 22:51:03 22 C 7.96 g/m*3 22 C 0 km/h
835 29-05-2005 23:03:03 21.7 C 8.01 g/m*3 21.7 C 0 km/h
836 29-05-2005 23:15:03 21.4 C 7.87 g/m*3 21.4 C 0 km/h
837 29-05-2005 23:27:03 21.2 C 7.78 g/m*3 21.2 C 0 km/h
838 29-05-2005 23:39:03 20.9 C 8.2 g/m*3 20.9 C 0 km/h
839 29-05-2005 23:51:03 20.8 C 8.33 g/m*3 20.8 C 0 km/h

Legende:
   Min
   Max


Maximal/Minimal-Werte vom 23.05.2005 - 29.05.2005

Sensor Min Max Avg
Temp
(Aussen-T/F)
7.3 °C
24-05-2005  05:33:02
34.8 °C
27-05-2005  18:12:02
21.41 °C
Abs-Feuchte
(Aussen-T/F)
5.74 g/m*3
24-05-2005  15:33:01
13.4 g/m*3
28-05-2005  09:49:02
9.08 g/m*3
Windchill
(Aussen-T/F)
7.3 C
24-05-2005  05:33:02
34.8 C
27-05-2005  18:12:02
21.39 C

Die Daten stammen von einer Davis Vantage Pro 2 Wetter-Station und werden unter Linux mit der Software wview2wettercgi und aufbereitet. Alle Angaben erfolgen ohne Gewähr für ihre Vollständigkeit oder Richtigkeit.
Kontakt: Rainer Krienke krienke@uni-koblenz.de . Meine Webseiten an der Uni Koblenz oder privat.
Version: $Revision: 0.78 $